Time;durP1;ratioP1;P1;durP2;ratioP2;P2;SDS_P1;SDS_P2;PMS_P1;PMS_P2;Temp;Humidity;BMP_temperature;BMP_pressure;BME280_temperature;BME280_humidity;BME280_pressure;Samples;Min_cycle;Max_cycle;Signal;HPM_P1;HPM_P2
2023/06/30 00:00:45;;;;;;;3.27;2.63;;;15.50;99.90;;;;;;5088775;28;20792;-61
2023/06/30 00:03:15;;;;;;;7.90;3.50;;;15.40;99.90;;;;;;5090345;28;20210;-61
2023/06/30 00:05:45;;;;;;;4.27;2.80;;;15.40;99.90;;;;;;5088725;28;20225;-62
2023/06/30 00:08:15;;;;;;;6.40;3.30;;;15.40;99.90;;;;;;5067034;28;20241;-61
2023/06/30 00:10:46;;;;;;;5.00;2.90;;;15.30;99.90;;;;;;5088543;28;20216;-61
2023/06/30 00:13:14;;;;;;;5.40;2.93;;;15.20;99.90;;;;;;5087743;28;20270;-61
2023/06/30 00:15:44;;;;;;;4.67;3.03;;;15.20;99.90;;;;;;5083784;28;20224;-61
2023/06/30 00:18:13;;;;;;;4.97;3.17;;;15.10;99.90;;;;;;5088612;28;20648;-61
2023/06/30 00:20:44;;;;;;;4.97;3.13;;;15.10;99.90;;;;;;5089934;28;20308;-62
2023/06/30 00:23:13;;;;;;;7.13;3.60;;;15.00;99.90;;;;;;5069802;28;20308;-61
2023/06/30 00:25:41;;;;;;;7.17;3.10;;;14.90;99.90;;;;;;5093237;28;20228;-62
2023/06/30 00:28:10;;;;;;;8.00;2.80;;;14.80;99.90;;;;;;5092010;28;20223;-62
2023/06/30 00:30:39;;;;;;;5.50;3.10;;;14.80;99.90;;;;;;5075851;28;20225;-61
2023/06/30 00:33:08;;;;;;;5.07;2.80;;;14.70;99.90;;;;;;5092755;28;20184;-61
2023/06/30 00:35:37;;;;;;;5.20;3.00;;;14.70;99.90;;;;;;5094071;28;20222;-61
2023/06/30 00:38:05;;;;;;;3.80;2.83;;;14.70;99.90;;;;;;5093798;28;20221;-62
2023/06/30 00:40:33;;;;;;;5.37;2.80;;;14.70;99.90;;;;;;5089400;28;20215;-61
2023/06/30 00:43:02;;;;;;;8.90;3.30;;;14.70;99.90;;;;;;5090978;28;20216;-61
2023/06/30 00:45:30;;;;;;;4.30;3.13;;;14.70;99.90;;;;;;5093897;28;20221;-62
2023/06/30 00:47:58;;;;;;;6.73;3.17;;;14.70;99.90;;;;;;5093835;28;20190;-61
2023/06/30 00:50:28;;;;;;;6.77;3.40;;;14.70;99.90;;;;;;5094249;28;20224;-61
2023/06/30 00:52:57;;;;;;;6.70;3.90;;;14.70;99.90;;;;;;5093928;28;20220;-62
2023/06/30 00:55:26;;;;;;;4.30;3.90;;;14.70;99.90;;;;;;5092639;28;20228;-61
2023/06/30 00:57:55;;;;;;;5.37;3.67;;;14.70;99.90;;;;;;5088629;28;20314;-61
2023/06/30 01:00:24;;;;;;;9.53;4.30;;;14.70;99.90;;;;;;5091867;28;20235;-61
2023/06/30 01:03:01;;;;;;;6.20;4.27;;;14.70;99.90;;;;;;5089452;28;20578;-61
2023/06/30 01:05:36;;;;;;;5.53;4.00;;;14.70;99.90;;;;;;5091914;28;20256;-61
2023/06/30 01:08:11;;;;;;;6.67;4.07;;;14.60;99.90;;;;;;5089935;28;20223;-61
2023/06/30 01:10:43;;;;;;;6.40;4.07;;;14.60;99.90;;;;;;5070561;28;20213;-61
2023/06/30 01:13:13;;;;;;;5.80;4.57;;;14.60;99.90;;;;;;5092802;28;20727;-61
2023/06/30 01:15:44;;;;;;;4.90;4.17;;;14.50;99.90;;;;;;5090670;28;20246;-61
2023/06/30 01:18:15;;;;;;;5.63;4.00;;;14.50;99.90;;;;;;5093075;28;20572;-61
2023/06/30 01:20:45;;;;;;;4.90;3.90;;;14.40;99.90;;;;;;5091414;28;20205;-61
2023/06/30 01:23:17;;;;;;;10.93;4.17;;;14.40;99.90;;;;;;5088406;28;20207;-61
2023/06/30 01:25:49;;;;;;;6.57;4.43;;;14.30;99.90;;;;;;5091690;28;20267;-61
2023/06/30 01:28:19;;;;;;;8.07;4.73;;;14.30;99.90;;;;;;5091919;28;20247;-62
2023/06/30 01:30:49;;;;;;;10.77;4.90;;;14.30;99.90;;;;;;5090416;28;20212;-61
2023/06/30 01:33:18;;;;;;;8.03;4.37;;;14.20;99.90;;;;;;5087791;28;20707;-61
2023/06/30 01:35:48;;;;;;;5.33;4.30;;;14.20;99.90;;;;;;5091204;28;20634;-62
2023/06/30 01:38:17;;;;;;;13.20;4.80;;;14.20;99.90;;;;;;5080971;28;20562;-61
2023/06/30 01:40:46;;;;;;;7.97;4.80;;;14.20;99.90;;;;;;5087714;28;20762;-61
2023/06/30 01:43:15;;;;;;;7.20;4.50;;;14.20;99.90;;;;;;5091100;28;20555;-62
2023/06/30 01:45:43;;;;;;;9.63;4.57;;;14.10;99.90;;;;;;5085790;28;20220;-62
2023/06/30 01:48:12;;;;;;;9.57;4.60;;;14.10;99.90;;;;;;5090813;28;20194;-61
2023/06/30 01:50:40;;;;;;;7.10;4.70;;;14.00;99.90;;;;;;5070672;28;20222;-61
2023/06/30 01:53:10;;;;;;;6.27;4.73;;;14.00;99.90;;;;;;5088519;28;20581;-61
2023/06/30 01:55:40;;;;;;;7.87;4.70;;;14.00;99.90;;;;;;5084869;28;20609;-61
2023/06/30 01:58:08;;;;;;;9.30;4.80;;;13.90;99.90;;;;;;5066876;28;20717;-61
2023/06/30 02:00:36;;;;;;;5.07;4.53;;;13.90;99.90;;;;;;5087962;28;20223;-61
2023/06/30 02:03:05;;;;;;;7.43;4.83;;;13.90;99.90;;;;;;5087164;28;20208;-61
2023/06/30 02:05:33;;;;;;;7.93;4.97;;;13.80;99.90;;;;;;5092063;28;20215;-61
2023/06/30 02:08:01;;;;;;;12.13;5.10;;;13.80;99.90;;;;;;5085079;28;20219;-61
2023/06/30 02:10:31;;;;;;;10.43;4.83;;;13.70;99.90;;;;;;5091107;28;20227;-61
2023/06/30 02:12:59;;;;;;;8.53;5.00;;;13.70;99.90;;;;;;5087950;28;20213;-61
2023/06/30 02:15:28;;;;;;;9.00;4.57;;;13.60;99.90;;;;;;5088131;28;20204;-61
2023/06/30 02:17:56;;;;;;;11.10;4.27;;;13.60;99.90;;;;;;5088247;28;20199;-62
2023/06/30 02:20:25;;;;;;;10.87;4.60;;;13.60;99.90;;;;;;5090002;28;20314;-62
2023/06/30 02:22:53;;;;;;;8.57;5.10;;;13.60;99.90;;;;;;5085948;28;20636;-61
2023/06/30 02:25:22;;;;;;;9.33;4.70;;;13.60;99.90;;;;;;5090440;28;20223;-61
2023/06/30 02:27:52;;;;;;;6.03;4.53;;;13.50;99.90;;;;;;5087376;28;20215;-61
2023/06/30 02:30:20;;;;;;;10.73;5.20;;;13.40;99.90;;;;;;5088054;28;20190;-61
2023/06/30 02:32:48;;;;;;;9.87;5.47;;;13.40;99.90;;;;;;5092579;28;20222;-61
2023/06/30 02:35:17;;;;;;;6.17;5.10;;;13.40;99.90;;;;;;5084911;28;20248;-61
2023/06/30 02:37:45;;;;;;;7.93;5.03;;;13.40;99.90;;;;;;5086833;28;20243;-61
2023/06/30 02:40:13;;;;;;;6.57;4.87;;;13.30;99.90;;;;;;5083578;28;20621;-61
2023/06/30 02:42:42;;;;;;;10.27;5.20;;;13.30;99.90;;;;;;5087857;28;20218;-61
2023/06/30 02:45:12;;;;;;;9.23;4.97;;;13.30;99.90;;;;;;5088699;28;20193;-61
2023/06/30 02:47:40;;;;;;;8.37;4.90;;;13.30;99.90;;;;;;5071557;28;20223;-61
2023/06/30 02:50:10;;;;;;;6.40;5.40;;;13.20;99.90;;;;;;5090108;28;20250;-61
2023/06/30 02:52:38;;;;;;;5.07;4.60;;;13.20;99.90;;;;;;5086228;28;20647;-60
2023/06/30 02:55:07;;;;;;;8.03;4.67;;;13.20;99.90;;;;;;5089169;28;20713;-61
2023/06/30 02:57:35;;;;;;;8.77;5.13;;;13.10;99.90;;;;;;5082583;28;20264;-61
2023/06/30 03:00:04;;;;;;;7.40;5.20;;;13.10;99.90;;;;;;5089108;28;20654;-61
2023/06/30 03:02:33;;;;;;;8.77;5.03;;;13.00;99.90;;;;;;5088089;28;20212;-61
2023/06/30 03:05:02;;;;;;;7.93;4.87;;;13.00;99.90;;;;;;5068441;28;20310;-61
2023/06/30 03:07:30;;;;;;;9.73;5.10;;;13.00;99.90;;;;;;5068274;28;20659;-62
2023/06/30 03:09:59;;;;;;;9.70;5.00;;;12.90;99.90;;;;;;5091189;28;20229;-61
2023/06/30 03:12:27;;;;;;;8.17;4.60;;;12.70;99.90;;;;;;5090153;28;20210;-61
2023/06/30 03:14:55;;;;;;;11.97;5.13;;;12.60;99.90;;;;;;5088037;28;20697;-61
2023/06/30 03:17:25;;;;;;;10.27;4.67;;;12.50;99.90;;;;;;5086234;28;20223;-61
2023/06/30 03:19:56;;;;;;;8.97;4.47;;;12.50;99.90;;;;;;5088284;28;20535;-61
2023/06/30 03:22:24;;;;;;;8.30;5.00;;;12.40;99.90;;;;;;5085169;28;20242;-61
2023/06/30 03:24:56;;;;;;;8.47;5.20;;;12.40;99.90;;;;;;5071852;28;20233;-61
2023/06/30 03:27:24;;;;;;;8.03;4.80;;;12.40;99.90;;;;;;5089517;28;20253;-61
2023/06/30 03:29:52;;;;;;;7.03;4.67;;;12.40;99.90;;;;;;5088037;28;20200;-61
2023/06/30 03:32:21;;;;;;;8.90;4.67;;;12.40;99.90;;;;;;5089711;28;20211;-61
2023/06/30 03:34:49;;;;;;;10.50;4.70;;;12.40;99.90;;;;;;5070366;28;20220;-61
2023/06/30 03:37:19;;;;;;;8.53;4.60;;;12.30;99.90;;;;;;5084667;28;20215;-61
2023/06/30 03:39:47;;;;;;;9.63;4.70;;;12.40;99.90;;;;;;5088898;28;20218;-61
2023/06/30 03:42:15;;;;;;;9.73;4.77;;;12.40;99.90;;;;;;5073000;28;20213;-61
2023/06/30 03:44:44;;;;;;;7.57;5.13;;;12.40;99.90;;;;;;5060500;28;20203;-61
2023/06/30 03:47:12;;;;;;;11.10;5.53;;;12.40;99.90;;;;;;5084167;28;20227;-61
2023/06/30 03:49:40;;;;;;;11.60;5.60;;;12.40;99.90;;;;;;5084184;28;20224;-61
2023/06/30 03:52:08;;;;;;;11.87;6.53;;;12.50;99.90;;;;;;5081803;28;20589;-61
2023/06/30 03:54:38;;;;;;;14.10;6.40;;;12.50;99.90;;;;;;5088805;28;20223;-61
2023/06/30 03:57:06;;;;;;;6.77;5.40;;;12.60;99.90;;;;;;5087422;28;20202;-61
2023/06/30 03:59:34;;;;;;;8.80;6.00;;;12.60;99.90;;;;;;5087865;28;20219;-61
2023/06/30 04:02:03;;;;;;;11.97;6.20;;;12.60;99.90;;;;;;5083528;28;20215;-61
2023/06/30 04:04:31;;;;;;;10.87;6.73;;;12.70;99.90;;;;;;5088837;28;20215;-61
2023/06/30 04:07:00;;;;;;;11.13;6.73;;;12.70;99.90;;;;;;5086824;28;20239;-61
2023/06/30 04:09:28;;;;;;;11.53;7.27;;;12.70;99.90;;;;;;5087719;28;20191;-61
2023/06/30 04:11:58;;;;;;;10.00;6.70;;;12.70;99.90;;;;;;5081500;28;20219;-61
2023/06/30 04:14:26;;;;;;;16.50;7.47;;;12.70;99.90;;;;;;5088182;28;20223;-61
2023/06/30 04:16:54;;;;;;;12.37;7.60;;;12.70;99.90;;;;;;5086866;28;20562;-61
2023/06/30 04:19:25;;;;;;;14.70;7.43;;;12.80;99.90;;;;;;5081503;28;20220;-61
2023/06/30 04:21:53;;;;;;;10.23;6.43;;;12.80;99.90;;;;;;5082256;28;20759;-61
2023/06/30 04:24:21;;;;;;;15.70;7.70;;;12.80;99.90;;;;;;5087204;28;20791;-62
2023/06/30 04:26:49;;;;;;;9.63;6.70;;;12.80;99.90;;;;;;5090110;28;20206;-61
2023/06/30 04:29:19;;;;;;;14.20;7.90;;;12.80;99.90;;;;;;5085867;28;20264;-61
2023/06/30 04:31:48;;;;;;;11.17;6.87;;;12.90;99.90;;;;;;5086424;28;20208;-61
2023/06/30 04:34:18;;;;;;;13.07;7.27;;;12.90;99.90;;;;;;5088876;28;20227;-61
2023/06/30 04:36:49;;;;;;;15.40;6.87;;;13.00;99.90;;;;;;5085535;28;20215;-62
2023/06/30 04:39:19;;;;;;;11.00;6.70;;;13.00;99.90;;;;;;5088790;28;20205;-61
2023/06/30 04:41:47;;;;;;;10.07;6.80;;;13.00;99.90;;;;;;5082989;28;20192;-61
2023/06/30 04:44:16;;;;;;;9.70;6.63;;;13.00;99.90;;;;;;5088214;28;20756;-60
2023/06/30 04:46:45;;;;;;;11.50;7.07;;;13.10;99.90;;;;;;5088510;28;20698;-61
2023/06/30 04:49:14;;;;;;;13.60;6.87;;;13.10;99.90;;;;;;5089789;28;20227;-61
2023/06/30 04:51:43;;;;;;;11.77;7.23;;;13.10;99.90;;;;;;5089076;28;20229;-61
2023/06/30 04:54:11;;;;;;;12.03;7.20;;;13.20;99.90;;;;;;5091323;28;20223;-61
2023/06/30 04:56:39;;;;;;;11.00;7.30;;;13.30;99.90;;;;;;5087681;28;20227;-61
2023/06/30 04:59:09;;;;;;;17.93;7.33;;;13.30;99.90;;;;;;5086546;28;20682;-61
2023/06/30 05:01:37;;;;;;;11.07;7.20;;;13.40;99.90;;;;;;5088294;28;20223;-61
2023/06/30 05:04:08;;;;;;;12.37;7.23;;;13.50;99.90;;;;;;5088383;28;20219;-62
2023/06/30 05:06:36;;;;;;;12.80;7.77;;;13.50;99.90;;;;;;5088641;28;20233;-61
2023/06/30 05:09:04;;;;;;;9.30;6.13;;;13.60;99.90;;;;;;5085350;28;20550;-61
2023/06/30 05:11:33;;;;;;;13.77;7.13;;;13.70;99.90;;;;;;5091984;28;20702;-61
2023/06/30 05:14:01;;;;;;;12.60;7.10;;;13.80;99.90;;;;;;5074533;28;20222;-61
2023/06/30 05:16:29;;;;;;;10.73;7.03;;;13.80;99.90;;;;;;5092922;28;20220;-61
2023/06/30 05:19:01;;;;;;;14.43;7.07;;;13.90;99.90;;;;;;5088230;28;20270;-61
2023/06/30 05:21:32;;;;;;;11.47;6.50;;;14.00;99.90;;;;;;5090727;28;20253;-61
2023/06/30 05:24:00;;;;;;;13.10;6.57;;;14.10;99.90;;;;;;5090323;28;20206;-61
2023/06/30 05:26:28;;;;;;;12.67;6.50;;;14.10;99.90;;;;;;5067065;28;20220;-61
2023/06/30 05:28:56;;;;;;;12.00;6.23;;;14.20;99.90;;;;;;5089443;28;20218;-61
2023/06/30 05:31:32;;;;;;;11.07;6.10;;;14.30;99.90;;;;;;5068881;28;20228;-61
2023/06/30 05:34:01;;;;;;;11.43;6.60;;;14.40;99.90;;;;;;5085276;28;20438;-61
2023/06/30 05:36:31;;;;;;;8.83;6.27;;;14.50;99.90;;;;;;5091816;28;20586;-61
2023/06/30 05:39:02;;;;;;;11.90;5.77;;;14.50;99.90;;;;;;5091403;28;20192;-61
2023/06/30 05:41:30;;;;;;;6.67;5.70;;;14.60;99.90;;;;;;5091157;28;20216;-61
2023/06/30 05:43:58;;;;;;;7.37;5.80;;;14.70;99.90;;;;;;5089271;28;20212;-61
2023/06/30 05:46:27;;;;;;;12.10;6.20;;;14.70;99.90;;;;;;5086295;28;20235;-61
2023/06/30 05:48:55;;;;;;;11.17;5.83;;;14.80;99.90;;;;;;5087557;28;20266;-61
2023/06/30 05:51:23;;;;;;;9.33;5.93;;;14.90;99.90;;;;;;5091206;28;20215;-61
2023/06/30 05:53:53;;;;;;;8.90;5.40;;;15.10;99.90;;;;;;5089266;28;20223;-61
2023/06/30 05:56:21;;;;;;;10.33;5.83;;;15.10;99.90;;;;;;5088705;28;20218;-60
2023/06/30 05:58:49;;;;;;;8.77;5.93;;;15.30;99.90;;;;;;5086752;28;20219;-61
2023/06/30 06:01:20;;;;;;;6.87;5.03;;;15.40;99.90;;;;;;5084115;28;20312;-61
2023/06/30 06:03:48;;;;;;;7.70;4.87;;;15.50;99.90;;;;;;5087611;28;20215;-61
2023/06/30 06:06:17;;;;;;;6.50;4.87;;;15.60;99.90;;;;;;5093918;28;20517;-61
2023/06/30 06:08:46;;;;;;;5.57;4.80;;;15.60;99.90;;;;;;5089226;28;20602;-61
2023/06/30 06:11:16;;;;;;;7.57;4.60;;;15.70;99.90;;;;;;5089316;28;20217;-61
2023/06/30 06:13:44;;;;;;;9.80;4.80;;;15.80;99.90;;;;;;5091259;28;20235;-61
2023/06/30 06:16:13;;;;;;;5.20;4.67;;;15.90;99.90;;;;;;5092306;28;20224;-62
2023/06/30 06:18:41;;;;;;;9.60;4.80;;;16.00;99.90;;;;;;5085980;28;20232;-61
2023/06/30 06:21:09;;;;;;;9.67;4.93;;;16.00;99.90;;;;;;5081933;28;20195;-61
2023/06/30 06:23:38;;;;;;;4.37;3.97;;;16.10;99.90;;;;;;5085710;28;20230;-61
2023/06/30 06:26:06;;;;;;;5.67;4.10;;;16.20;99.90;;;;;;5085066;28;20218;-61
2023/06/30 06:28:35;;;;;;;5.80;4.20;;;16.30;99.90;;;;;;5070560;28;20562;-61
2023/06/30 06:31:04;;;;;;;6.90;4.10;;;16.40;99.90;;;;;;5091690;28;20685;-61
2023/06/30 06:33:32;;;;;;;7.50;3.63;;;16.40;99.90;;;;;;5088023;28;20219;-61
2023/06/30 06:36:00;;;;;;;4.00;3.67;;;16.60;99.90;;;;;;5085727;28;20212;-61
2023/06/30 06:38:29;;;;;;;6.67;3.67;;;16.60;99.90;;;;;;5092190;28;20227;-61
2023/06/30 06:40:57;;;;;;;5.33;3.23;;;16.70;99.90;;;;;;5088677;28;20217;-61
2023/06/30 06:43:27;;;;;;;8.27;3.07;;;16.80;99.90;;;;;;5073189;28;20585;-62
2023/06/30 06:45:57;;;;;;;5.30;3.40;;;16.90;99.90;;;;;;5071235;28;20704;-61
2023/06/30 06:48:26;;;;;;;5.33;3.00;;;17.00;99.90;;;;;;5091334;28;20234;-61
2023/06/30 06:50:56;;;;;;;3.87;2.80;;;17.10;99.90;;;;;;5086694;28;20245;-61
2023/06/30 06:53:27;;;;;;;5.23;3.10;;;17.20;99.90;;;;;;5089543;28;20269;-61
2023/06/30 06:55:56;;;;;;;4.30;3.10;;;17.30;99.90;;;;;;5091025;28;20211;-61
2023/06/30 06:58:26;;;;;;;4.27;2.40;;;17.40;99.90;;;;;;5091846;28;20233;-61
2023/06/30 07:00:56;;;;;;;5.20;2.33;;;17.40;99.90;;;;;;5090456;28;20566;-61
2023/06/30 07:03:24;;;;;;;3.20;2.20;;;17.50;99.90;;;;;;5091273;28;20211;-61
2023/06/30 07:05:53;;;;;;;3.13;1.90;;;17.60;99.90;;;;;;5077690;28;20223;-61
2023/06/30 07:08:22;;;;;;;6.37;2.10;;;17.70;99.90;;;;;;5083876;28;20286;-61
2023/06/30 07:10:51;;;;;;;3.00;2.03;;;17.80;99.90;;;;;;5088525;28;20301;-61
2023/06/30 07:13:21;;;;;;;5.40;2.37;;;17.90;99.90;;;;;;5081229;28;20212;-61
2023/06/30 07:15:50;;;;;;;3.40;1.93;;;18.10;99.90;;;;;;5088643;28;20235;-61
2023/06/30 07:18:21;;;;;;;2.30;1.80;;;18.20;99.90;;;;;;5068806;28;20188;-61
2023/06/30 07:20:51;;;;;;;5.50;2.13;;;18.30;99.90;;;;;;5090542;28;20274;-61
2023/06/30 07:23:20;;;;;;;5.90;2.20;;;18.40;99.90;;;;;;5069861;28;20922;-62
2023/06/30 07:25:52;;;;;;;2.70;2.10;;;18.50;99.90;;;;;;5088044;28;20207;-60
2023/06/30 07:28:21;;;;;;;2.10;2.00;;;18.50;99.90;;;;;;5071036;28;20211;-60
2023/06/30 07:30:49;;;;;;;4.07;2.10;;;18.70;99.90;;;;;;5078496;28;20220;-61
2023/06/30 07:33:19;;;;;;;2.93;2.10;;;18.90;99.90;;;;;;5068521;28;20663;-61
2023/06/30 07:35:48;;;;;;;2.80;1.90;;;18.90;99.90;;;;;;5089711;28;20191;-61
2023/06/30 07:38:17;;;;;;;3.57;1.77;;;18.90;99.90;;;;;;5091145;28;20219;-61
2023/06/30 07:40:45;;;;;;;4.23;2.07;;;19.00;99.90;;;;;;5089642;28;20263;-61
2023/06/30 07:43:23;;;;;;;4.23;1.80;;;19.10;99.90;;;;;;5083895;28;20243;-61
2023/06/30 07:45:51;;;;;;;2.00;1.90;;;19.10;99.90;;;;;;5090677;28;20551;-62
2023/06/30 07:48:21;;;;;;;1.70;1.60;;;19.10;99.90;;;;;;5069654;28;20191;-61
2023/06/30 07:50:49;;;;;;;1.40;1.33;;;19.30;99.90;;;;;;5085932;28;20195;-61
2023/06/30 07:53:34;;;;;;;2.57;1.87;;;19.50;99.90;;;;;;5087414;28;20230;-61
2023/06/30 07:56:02;;;;;;;3.10;1.63;;;19.60;99.90;;;;;;5083716;28;20215;-61
2023/06/30 07:58:31;;;;;;;5.10;1.80;;;19.60;99.90;;;;;;5086562;28;20223;-61
2023/06/30 08:01:00;;;;;;;2.63;1.70;;;19.70;99.90;;;;;;5089274;28;20219;-61
2023/06/30 08:03:29;;;;;;;2.10;1.50;;;19.70;99.90;;;;;;5089314;28;20191;-61
2023/06/30 08:05:58;;;;;;;3.53;1.93;;;19.90;99.90;;;;;;5090270;28;20294;-61
2023/06/30 08:08:27;;;;;;;2.30;1.40;;;20.00;99.90;;;;;;5085444;28;20219;-61
2023/06/30 08:10:56;;;;;;;2.17;1.70;;;20.10;99.90;;;;;;5088605;28;20247;-61
2023/06/30 08:13:24;;;;;;;1.90;1.70;;;20.30;99.90;;;;;;5083306;28;20216;-61
2023/06/30 08:15:52;;;;;;;2.57;2.00;;;20.40;99.90;;;;;;5062759;28;20221;-61
2023/06/30 08:18:22;;;;;;;2.53;1.57;;;20.50;99.90;;;;;;5086594;28;20187;-61
2023/06/30 08:21:02;;;;;;;2.60;1.60;;;20.40;99.90;;;;;;5068161;28;20205;-61
2023/06/30 08:23:31;;;;;;;1.50;1.40;;;20.30;99.90;;;;;;5086020;28;20235;-61
2023/06/30 08:26:01;;;;;;;5.27;1.87;;;20.10;99.90;;;;;;5082971;28;20236;-61
2023/06/30 08:28:29;;;;;;;1.57;1.37;;;20.10;99.90;;;;;;5086098;28;20225;-61
2023/06/30 08:30:58;;;;;;;1.40;1.37;;;19.90;99.90;;;;;;5090103;28;20262;-61
2023/06/30 08:33:28;;;;;;;1.50;1.50;;;19.80;99.90;;;;;;5088744;28;20829;-61
2023/06/30 08:36:01;;;;;;;2.47;1.83;;;19.70;99.90;;;;;;5089079;28;20611;-61
2023/06/30 08:38:29;;;;;;;1.93;1.67;;;19.70;99.90;;;;;;5085732;28;20243;-61
2023/06/30 08:40:59;;;;;;;4.43;2.10;;;19.70;99.90;;;;;;5084162;28;20219;-61
2023/06/30 08:43:29;;;;;;;2.63;1.80;;;19.70;99.90;;;;;;5083926;28;20231;-61
2023/06/30 08:46:01;;;;;;;5.53;1.80;;;19.60;99.90;;;;;;5090973;28;20336;-61
2023/06/30 08:48:31;;;;;;;2.50;1.80;;;19.60;99.90;;;;;;5089227;28;20191;-61
2023/06/30 08:51:02;;;;;;;1.43;1.43;;;19.60;99.90;;;;;;5086679;28;20214;-61
2023/06/30 08:53:31;;;;;;;3.70;1.67;;;19.70;99.90;;;;;;5090001;28;20678;-61
2023/06/30 08:56:00;;;;;;;1.70;1.60;;;19.60;99.90;;;;;;5093461;28;20218;-61
2023/06/30 08:58:29;;;;;;;2.50;2.00;;;19.60;99.90;;;;;;5092949;28;20222;-61
2023/06/30 09:00:58;;;;;;;4.27;1.80;;;19.70;99.90;;;;;;5092882;28;20739;-61
2023/06/30 09:03:27;;;;;;;2.27;1.90;;;19.70;99.90;;;;;;5093027;28;20191;-61
2023/06/30 09:05:59;;;;;;;2.30;1.83;;;19.80;99.90;;;;;;5088332;28;20200;-61
2023/06/30 09:08:36;;;;;;;2.13;1.80;;;19.80;99.90;;;;;;5088911;28;20215;-61
2023/06/30 09:11:07;;;;;;;4.47;1.90;;;19.90;99.90;;;;;;5067430;28;20723;-61
2023/06/30 09:13:39;;;;;;;3.07;2.00;;;20.10;99.90;;;;;;5090472;28;20207;-61
2023/06/30 09:16:12;;;;;;;5.23;2.00;;;20.10;99.90;;;;;;5093961;28;20211;-61
2023/06/30 09:18:47;;;;;;;7.63;2.10;;;20.10;99.90;;;;;;5089354;28;20298;-61
2023/06/30 09:21:15;;;;;;;4.03;1.93;;;20.10;99.90;;;;;;5093101;28;20227;-62
2023/06/30 09:23:45;;;;;;;4.17;2.10;;;20.20;99.90;;;;;;5089476;28;20195;-61
2023/06/30 09:26:14;;;;;;;3.80;2.17;;;20.30;99.90;;;;;;5087603;28;20301;-61
2023/06/30 09:28:43;;;;;;;6.30;2.03;;;20.50;99.90;;;;;;5090003;28;20218;-61
2023/06/30 09:31:13;;;;;;;3.50;1.67;;;20.70;99.90;;;;;;5074284;28;20223;-60
2023/06/30 09:33:42;;;;;;;3.03;2.20;;;20.80;99.90;;;;;;5088661;28;20220;-61
2023/06/30 09:36:17;;;;;;;3.90;2.00;;;20.90;99.90;;;;;;5093757;28;20191;-61
2023/06/30 09:38:47;;;;;;;5.20;2.00;;;20.90;99.90;;;;;;5092287;28;20249;-62
2023/06/30 09:41:22;;;;;;;4.23;1.60;;;20.90;99.90;;;;;;5090521;28;20215;-61
2023/06/30 09:43:58;;;;;;;2.43;1.80;;;20.90;99.90;;;;;;5092772;28;20569;-62
2023/06/30 09:46:28;;;;;;;3.73;2.10;;;20.90;99.90;;;;;;5085914;28;20280;-61
2023/06/30 09:48:57;;;;;;;1.90;1.63;;;21.00;99.90;;;;;;5091637;28;20770;-62
2023/06/30 09:51:26;;;;;;;3.13;2.07;;;21.20;99.90;;;;;;5090551;28;20192;-62
2023/06/30 09:53:56;;;;;;;5.70;1.80;;;21.20;99.90;;;;;;5063650;28;20244;-60
2023/06/30 09:56:26;;;;;;;1.80;1.70;;;21.60;99.90;;;;;;5051248;28;20226;-62
2023/06/30 09:58:57;;;;;;;4.53;1.77;;;21.70;99.90;;;;;;5051696;28;20312;-61
2023/06/30 10:01:26;;;;;;;1.60;1.50;;;21.70;99.90;;;;;;5052394;28;20711;-61
2023/06/30 10:03:55;;;;;;;3.77;2.20;;;21.80;99.90;;;;;;5050325;28;20226;-61
2023/06/30 10:06:25;;;;;;;5.77;1.83;;;21.70;99.90;;;;;;5050827;28;20194;-61
2023/06/30 10:08:57;;;;;;;3.03;2.30;;;21.80;99.90;;;;;;5047088;28;20234;-61
2023/06/30 10:11:29;;;;;;;2.20;2.10;;;21.70;99.90;;;;;;5038645;28;20244;-61
2023/06/30 10:14:00;;;;;;;2.37;2.17;;;21.50;99.90;;;;;;5051174;28;20218;-62
2023/06/30 10:16:29;;;;;;;4.87;2.73;;;21.50;99.90;;;;;;5049182;28;20246;-63
2023/06/30 10:19:01;;;;;;;7.93;3.40;;;21.50;99.90;;;;;;5043387;28;20776;-61
2023/06/30 10:21:29;;;;;;;4.20;2.90;;;21.50;99.90;;;;;;5051954;28;20201;-61
2023/06/30 10:24:01;;;;;;;3.47;2.73;;;21.20;99.90;;;;;;5047724;28;21647;-61
2023/06/30 10:26:32;;;;;;;4.93;2.77;;;21.20;99.90;;;;;;5047254;28;20351;-61
2023/06/30 10:29:00;;;;;;;5.97;2.60;;;21.10;99.90;;;;;;5048569;28;20221;-61
2023/06/30 10:31:28;;;;;;;3.47;2.63;;;21.00;99.90;;;;;;5048864;28;20222;-61
2023/06/30 10:33:57;;;;;;;4.87;3.30;;;21.00;99.90;;;;;;5045747;28;20248;-61
2023/06/30 10:36:26;;;;;;;3.90;3.40;;;20.80;99.90;;;;;;5049048;28;20192;-61
2023/06/30 10:38:55;;;;;;;4.80;3.90;;;20.80;99.90;;;;;;5049726;28;20200;-61
2023/06/30 10:41:24;;;;;;;4.53;3.60;;;20.70;99.90;;;;;;5050199;28;20253;-61
2023/06/30 10:44:09;;;;;;;6.30;3.80;;;20.70;99.90;;;;;;5043116;28;20249;-61
2023/06/30 10:47:01;;;;;;;9.97;4.57;;;20.70;99.90;;;;;;5043622;28;20316;-61
2023/06/30 10:49:33;;;;;;;8.07;4.20;;;20.70;99.90;;;;;;5031251;28;20208;-61
2023/06/30 10:52:02;;;;;;;5.90;3.90;;;20.70;99.90;;;;;;5039576;28;20221;-61
2023/06/30 10:54:40;;;;;;;5.77;3.60;;;20.70;99.90;;;;;;5057931;28;20248;-61
2023/06/30 10:57:12;;;;;;;5.40;3.83;;;20.80;99.90;;;;;;5067814;28;20234;-61
2023/06/30 10:59:41;;;;;;;5.10;3.83;;;21.00;99.90;;;;;;5066964;28;20217;-61
2023/06/30 11:02:23;;;;;;;7.10;3.40;;;21.00;99.90;;;;;;5066968;28;20220;-60
2023/06/30 11:04:53;;;;;;;4.33;3.00;;;21.20;99.90;;;;;;5069729;28;20215;-61
2023/06/30 11:07:25;;;;;;;5.13;3.33;;;21.50;99.90;;;;;;5065013;28;20309;-60
2023/06/30 11:09:59;;;;;;;3.77;3.40;;;21.70;99.90;;;;;;5061443;28;21148;-61
2023/06/30 11:12:49;;;;;;;3.10;2.80;;;22.10;99.90;;;;;;5065353;28;20224;-61
2023/06/30 11:15:36;;;;;;;4.90;3.00;;;22.30;99.90;;;;;;5061960;28;20680;-61
2023/06/30 11:18:06;;;;;;;4.93;2.87;;;22.50;99.90;;;;;;5071136;28;20221;-60
2023/06/30 11:20:34;;;;;;;6.37;2.90;;;22.40;99.90;;;;;;5068849;28;20223;-61
2023/06/30 11:23:04;;;;;;;3.57;2.67;;;22.40;99.90;;;;;;5061038;28;20217;-61
2023/06/30 11:25:34;;;;;;;5.87;2.73;;;22.50;99.90;;;;;;5066103;28;20642;-61
2023/06/30 11:28:05;;;;;;;5.60;2.30;;;22.70;99.90;;;;;;5069579;28;20229;-62
2023/06/30 11:30:36;;;;;;;7.63;2.40;;;22.90;99.90;;;;;;5069132;28;20187;-61
2023/06/30 11:33:06;;;;;;;5.73;1.80;;;23.00;99.90;;;;;;5061643;28;20277;-61
2023/06/30 11:35:36;;;;;;;2.97;1.77;;;23.20;99.90;;;;;;5065219;28;20694;-61
2023/06/30 11:38:07;;;;;;;1.90;1.80;;;23.50;99.90;;;;;;5064727;28;20576;-61
2023/06/30 11:40:36;;;;;;;2.17;2.00;;;23.50;99.90;;;;;;5067812;28;21324;-60
2023/06/30 11:43:06;;;;;;;2.03;1.93;;;23.50;99.90;;;;;;5064995;28;20217;-61
2023/06/30 11:45:34;;;;;;;3.17;2.20;;;23.50;99.90;;;;;;5064337;28;20238;-62
2023/06/30 11:48:02;;;;;;;3.50;2.27;;;23.50;99.90;;;;;;5063854;28;20208;-61
2023/06/30 11:50:33;;;;;;;2.20;2.10;;;23.50;99.90;;;;;;5070836;28;20218;-61
2023/06/30 11:53:01;;;;;;;2.97;2.53;;;23.60;99.90;;;;;;5066071;28;20229;-62
2023/06/30 11:55:30;;;;;;;3.43;2.40;;;23.70;99.90;;;;;;5071664;28;20306;-62
2023/06/30 11:57:58;;;;;;;3.13;2.43;;;23.80;99.90;;;;;;5088483;28;20225;-62
2023/06/30 12:00:29;;;;;;;3.97;2.63;;;23.80;99.90;;;;;;5067481;28;20227;-61
2023/06/30 12:02:58;;;;;;;2.83;2.50;;;24.00;99.90;;;;;;5070940;28;20201;-62
2023/06/30 12:05:28;;;;;;;3.77;3.00;;;24.10;99.90;;;;;;5085203;28;20727;-61
2023/06/30 12:07:57;;;;;;;7.40;2.73;;;24.20;99.90;;;;;;5082920;28;20220;-62
2023/06/30 12:10:37;;;;;;;2.73;2.53;;;24.10;99.90;;;;;;5081537;28;20223;-61
2023/06/30 12:13:08;;;;;;;4.87;2.80;;;23.90;99.90;;;;;;5083341;28;20220;-61
2023/06/30 12:15:38;;;;;;;6.13;2.90;;;23.70;99.90;;;;;;5084788;28;20250;-62
2023/06/30 12:18:06;;;;;;;4.07;2.60;;;23.70;99.90;;;;;;5076855;28;20183;-61
2023/06/30 12:20:36;;;;;;;3.27;2.43;;;23.70;99.90;;;;;;5071316;28;20230;-61
2023/06/30 12:23:06;;;;;;;7.30;2.20;;;23.80;99.90;;;;;;5091903;28;20222;-61
2023/06/30 12:25:36;;;;;;;2.60;2.40;;;23.80;99.90;;;;;;5091106;28;20284;-61
2023/06/30 12:28:05;;;;;;;3.13;2.33;;;23.90;99.90;;;;;;5089309;28;20218;-62
2023/06/30 12:30:34;;;;;;;2.47;2.23;;;24.00;99.90;;;;;;5088726;28;20194;-62
2023/06/30 12:33:04;;;;;;;4.07;1.83;;;24.00;99.90;;;;;;5089420;28;20198;-62
2023/06/30 12:35:34;;;;;;;2.60;1.70;;;24.20;99.90;;;;;;5086130;28;20220;-63
2023/06/30 12:38:04;;;;;;;1.70;1.60;;;24.20;99.90;;;;;;5090521;28;20217;-62
2023/06/30 12:40:32;;;;;;;4.13;1.80;;;24.30;99.90;;;;;;5090559;28;20212;-61
2023/06/30 12:43:01;;;;;;;2.10;1.80;;;24.50;99.90;;;;;;5089328;28;20212;-62
2023/06/30 12:45:29;;;;;;;4.60;2.00;;;24.60;99.90;;;;;;5091033;28;20216;-63
2023/06/30 12:47:59;;;;;;;3.73;2.00;;;24.60;99.90;;;;;;5090398;28;20242;-63
2023/06/30 12:50:30;;;;;;;2.90;1.60;;;24.70;99.90;;;;;;5090524;28;20218;-63
2023/06/30 12:53:00;;;;;;;1.80;1.70;;;24.70;99.90;;;;;;5087947;28;20219;-62
2023/06/30 12:55:29;;;;;;;2.87;1.77;;;24.80;99.90;;;;;;5090907;28;20282;-62
2023/06/30 12:57:57;;;;;;;2.80;1.77;;;24.80;99.90;;;;;;5083583;28;20313;-63